sensor_id;sensor_type;location;lat;lon;timestamp;pressure;altitude;pressure_sealevel;temperature;humidity
33845;BME280;20145;43.118;25.694;2023-01-26T00:01:11;100463.03;;;2.41;93.73
33845;BME280;20145;43.118;25.694;2023-01-26T00:03:37;100469.28;;;2.50;93.64
33845;BME280;20145;43.118;25.694;2023-01-26T00:06:04;100465.97;;;2.52;93.79
33845;BME280;20145;43.118;25.694;2023-01-26T00:08:34;100478.13;;;2.59;93.64
33845;BME280;20145;43.118;25.694;2023-01-26T00:11:03;100460.94;;;2.54;93.68
33845;BME280;20145;43.118;25.694;2023-01-26T00:13:29;100468.88;;;2.61;93.88
33845;BME280;20145;43.118;25.694;2023-01-26T00:15:54;100476.22;;;2.54;93.72
33845;BME280;20145;43.118;25.694;2023-01-26T00:18:20;100467.91;;;2.58;93.64
33845;BME280;20145;43.118;25.694;2023-01-26T00:20:45;100462.84;;;2.59;92.93
33845;BME280;20145;43.118;25.694;2023-01-26T00:23:11;100466.78;;;2.51;93.16
33845;BME280;20145;43.118;25.694;2023-01-26T00:25:37;100469.56;;;2.57;93.75
33845;BME280;20145;43.118;25.694;2023-01-26T00:28:06;100465.16;;;2.53;92.90
33845;BME280;20145;43.118;25.694;2023-01-26T00:30:31;100467.91;;;2.58;92.90
33845;BME280;20145;43.118;25.694;2023-01-26T00:32:57;100467.06;;;2.59;92.51
33845;BME280;20145;43.118;25.694;2023-01-26T00:35:23;100470.59;;;2.62;92.72
33845;BME280;20145;43.118;25.694;2023-01-26T00:37:48;100468.25;;;2.68;92.71
33845;BME280;20145;43.118;25.694;2023-01-26T00:40:14;100467.41;;;2.68;91.82
33845;BME280;20145;43.118;25.694;2023-01-26T00:42:40;100457.28;;;2.70;92.01
33845;BME280;20145;43.118;25.694;2023-01-26T00:45:06;100459.97;;;2.74;91.06
33845;BME280;20145;43.118;25.694;2023-01-26T00:47:31;100456.47;;;2.71;91.24
33845;BME280;20145;43.118;25.694;2023-01-26T00:49:57;100457.00;;;2.62;90.71
33845;BME280;20145;43.118;25.694;2023-01-26T00:52:22;100454.56;;;2.65;90.63
33845;BME280;20145;43.118;25.694;2023-01-26T00:54:48;100441.13;;;2.46;91.35
33845;BME280;20145;43.118;25.694;2023-01-26T00:57:13;100426.38;;;2.38;91.03
33845;BME280;20145;43.118;25.694;2023-01-26T00:59:39;100423.72;;;2.35;91.78
33845;BME280;20145;43.118;25.694;2023-01-26T01:02:05;100417.03;;;2.37;93.18
33845;BME280;20145;43.118;25.694;2023-01-26T01:04:31;100416.25;;;2.39;92.72
33845;BME280;20145;43.118;25.694;2023-01-26T01:06:57;100414.69;;;2.43;92.62
33845;BME280;20145;43.118;25.694;2023-01-26T01:09:22;100406.28;;;2.45;92.42
33845;BME280;20145;43.118;25.694;2023-01-26T01:11:48;100406.41;;;2.49;92.57
33845;BME280;20145;43.118;25.694;2023-01-26T01:14:14;100386.56;;;2.40;92.96
33845;BME280;20145;43.118;25.694;2023-01-26T01:16:41;100402.88;;;2.45;92.92
33845;BME280;20145;43.118;25.694;2023-01-26T01:19:06;100399.25;;;2.38;92.32
33845;BME280;20145;43.118;25.694;2023-01-26T01:21:32;100395.31;;;2.24;92.32
33845;BME280;20145;43.118;25.694;2023-01-26T01:23:58;100389.34;;;2.23;92.86
33845;BME280;20145;43.118;25.694;2023-01-26T01:26:25;100393.03;;;2.30;93.21
33845;BME280;20145;43.118;25.694;2023-01-26T01:28:53;100401.00;;;2.39;93.45
33845;BME280;20145;43.118;25.694;2023-01-26T01:31:20;100384.09;;;2.41;92.50
33845;BME280;20145;43.118;25.694;2023-01-26T01:33:47;100381.31;;;2.35;93.27
33845;BME280;20145;43.118;25.694;2023-01-26T01:36:14;100381.56;;;2.41;93.11
33845;BME280;20145;43.118;25.694;2023-01-26T01:38:41;100390.91;;;2.42;92.77
33845;BME280;20145;43.118;25.694;2023-01-26T01:41:07;100378.19;;;2.42;92.88
33845;BME280;20145;43.118;25.694;2023-01-26T01:43:33;100378.09;;;2.41;92.32
33845;BME280;20145;43.118;25.694;2023-01-26T01:46:00;100380.50;;;2.36;92.46
33845;BME280;20145;43.118;25.694;2023-01-26T01:48:33;100377.84;;;2.33;92.76
33845;BME280;20145;43.118;25.694;2023-01-26T01:51:04;100384.66;;;2.34;92.14
33845;BME280;20145;43.118;25.694;2023-01-26T01:53:36;100369.97;;;2.27;92.88
33845;BME280;20145;43.118;25.694;2023-01-26T01:56:07;100372.41;;;2.24;92.56
33845;BME280;20145;43.118;25.694;2023-01-26T01:58:36;100383.22;;;2.18;93.18
33845;BME280;20145;43.118;25.694;2023-01-26T02:01:03;100375.66;;;2.20;93.78
33845;BME280;20145;43.118;25.694;2023-01-26T02:03:29;100373.44;;;2.29;93.97
33845;BME280;20145;43.118;25.694;2023-01-26T02:08:36;100351.16;;;2.23;93.17
33845;BME280;20145;43.118;25.694;2023-01-26T02:11:06;100356.88;;;2.16;92.82
33845;BME280;20145;43.118;25.694;2023-01-26T02:13:33;100349.09;;;2.13;93.49
33845;BME280;20145;43.118;25.694;2023-01-26T02:15:59;100339.84;;;2.15;93.60
33845;BME280;20145;43.118;25.694;2023-01-26T02:18:25;100347.31;;;2.11;93.49
33845;BME280;20145;43.118;25.694;2023-01-26T02:20:56;100348.06;;;2.08;93.37
33845;BME280;20145;43.118;25.694;2023-01-26T02:26:11;100332.28;;;1.94;93.25
33845;BME280;20145;43.118;25.694;2023-01-26T02:28:39;100328.63;;;1.88;93.50
33845;BME280;20145;43.118;25.694;2023-01-26T02:31:06;100316.31;;;1.76;94.10
33845;BME280;20145;43.118;25.694;2023-01-26T02:33:32;100312.72;;;1.71;93.23
33845;BME280;20145;43.118;25.694;2023-01-26T02:35:58;100310.94;;;1.68;94.63
33845;BME280;20145;43.118;25.694;2023-01-26T02:38:29;100315.91;;;1.65;94.24
33845;BME280;20145;43.118;25.694;2023-01-26T02:41:07;100310.78;;;1.64;94.23
33845;BME280;20145;43.118;25.694;2023-01-26T02:43:34;100312.31;;;1.60;94.56
33845;BME280;20145;43.118;25.694;2023-01-26T02:46:00;100316.72;;;1.64;94.17
33845;BME280;20145;43.118;25.694;2023-01-26T02:48:25;100312.44;;;1.63;95.32
33845;BME280;20145;43.118;25.694;2023-01-26T02:51:09;100300.34;;;1.58;93.39
33845;BME280;20145;43.118;25.694;2023-01-26T02:53:35;100299.44;;;1.55;94.04
33845;BME280;20145;43.118;25.694;2023-01-26T02:56:01;100306.34;;;1.58;95.31
33845;BME280;20145;43.118;25.694;2023-01-26T02:58:26;100305.44;;;1.58;93.75
33845;BME280;20145;43.118;25.694;2023-01-26T03:00:52;100298.75;;;1.60;94.85
33845;BME280;20145;43.118;25.694;2023-01-26T03:03:21;100308.25;;;1.64;93.48
33845;BME280;20145;43.118;25.694;2023-01-26T03:05:48;100300.72;;;1.67;94.42
33845;BME280;20145;43.118;25.694;2023-01-26T03:08:14;100297.25;;;1.65;94.08
33845;BME280;20145;43.118;25.694;2023-01-26T03:10:40;100298.97;;;1.66;93.93
33845;BME280;20145;43.118;25.694;2023-01-26T03:13:06;100284.34;;;1.60;93.35
33845;BME280;20145;43.118;25.694;2023-01-26T03:15:32;100298.28;;;1.70;93.56
33845;BME280;20145;43.118;25.694;2023-01-26T03:18:27;100297.28;;;1.66;93.31
33845;BME280;20145;43.118;25.694;2023-01-26T03:21:15;100283.59;;;1.63;93.52
33845;BME280;20145;43.118;25.694;2023-01-26T03:24:00;100283.06;;;1.71;93.39
33845;BME280;20145;43.118;25.694;2023-01-26T03:26:44;100279.00;;;1.75;94.21
33845;BME280;20145;43.118;25.694;2023-01-26T03:29:29;100276.50;;;1.76;93.29
33845;BME280;20145;43.118;25.694;2023-01-26T03:31:55;100267.25;;;1.78;94.09
33845;BME280;20145;43.118;25.694;2023-01-26T03:34:21;100265.63;;;1.81;92.92
33845;BME280;20145;43.118;25.694;2023-01-26T03:36:47;100265.75;;;1.84;93.04
33845;BME280;20145;43.118;25.694;2023-01-26T03:39:14;100264.06;;;1.84;93.79
33845;BME280;20145;43.118;25.694;2023-01-26T03:41:58;100263.47;;;1.91;93.78
33845;BME280;20145;43.118;25.694;2023-01-26T03:44:42;100255.88;;;1.93;92.91
33845;BME280;20145;43.118;25.694;2023-01-26T03:47:26;100256.94;;;1.98;93.35
33845;BME280;20145;43.118;25.694;2023-01-26T03:50:10;100253.44;;;1.96;93.12
33845;BME280;20145;43.118;25.694;2023-01-26T03:52:54;100254.50;;;2.01;92.04
33845;BME280;20145;43.118;25.694;2023-01-26T03:55:39;100248.66;;;2.04;92.57
33845;BME280;20145;43.118;25.694;2023-01-26T03:58:23;100251.19;;;2.04;92.62
33845;BME280;20145;43.118;25.694;2023-01-26T04:00:49;100253.03;;;2.08;92.55
33845;BME280;20145;43.118;25.694;2023-01-26T04:03:15;100247.94;;;2.08;92.49
33845;BME280;20145;43.118;25.694;2023-01-26T04:05:58;100241.31;;;2.13;92.92
33845;BME280;20145;43.118;25.694;2023-01-26T04:08:45;100243.94;;;2.14;92.33
33845;BME280;20145;43.118;25.694;2023-01-26T04:11:12;100233.69;;;2.13;92.76
33845;BME280;20145;43.118;25.694;2023-01-26T04:13:38;100230.91;;;2.05;92.17
33845;BME280;20145;43.118;25.694;2023-01-26T04:16:22;100230.13;;;2.08;91.71
33845;BME280;20145;43.118;25.694;2023-01-26T04:19:06;100224.66;;;1.97;91.92
33845;BME280;20145;43.118;25.694;2023-01-26T04:21:50;100228.84;;;1.95;92.53
33845;BME280;20145;43.118;25.694;2023-01-26T04:24:16;100221.94;;;1.92;92.50
33845;BME280;20145;43.118;25.694;2023-01-26T04:26:42;100219.34;;;1.91;92.21
33845;BME280;20145;43.118;25.694;2023-01-26T04:29:10;100221.13;;;1.93;92.12
33845;BME280;20145;43.118;25.694;2023-01-26T04:31:36;100210.66;;;1.86;92.08
33845;BME280;20145;43.118;25.694;2023-01-26T04:34:04;100210.75;;;1.87;92.60
33845;BME280;20145;43.118;25.694;2023-01-26T04:36:30;100207.38;;;1.88;92.20
33845;BME280;20145;43.118;25.694;2023-01-26T04:38:56;100191.91;;;1.82;92.49
33845;BME280;20145;43.118;25.694;2023-01-26T04:41:22;100207.34;;;1.87;92.81
33845;BME280;20145;43.118;25.694;2023-01-26T04:43:47;100204.69;;;1.84;93.07
33845;BME280;20145;43.118;25.694;2023-01-26T04:46:13;100209.03;;;1.86;92.65
33845;BME280;20145;43.118;25.694;2023-01-26T04:48:38;100217.84;;;1.96;93.65
33845;BME280;20145;43.118;25.694;2023-01-26T04:51:08;100220.66;;;2.04;93.02
33845;BME280;20145;43.118;25.694;2023-01-26T04:53:34;100207.94;;;2.04;92.01
33845;BME280;20145;43.118;25.694;2023-01-26T04:56:00;100205.56;;;2.08;92.87
33845;BME280;20145;43.118;25.694;2023-01-26T04:58:26;100207.34;;;2.11;92.33
33845;BME280;20145;43.118;25.694;2023-01-26T05:00:56;100203.34;;;2.19;91.90
33845;BME280;20145;43.118;25.694;2023-01-26T05:03:23;100203.50;;;2.22;91.94
33845;BME280;20145;43.118;25.694;2023-01-26T05:05:52;100207.00;;;2.26;91.97
33845;BME280;20145;43.118;25.694;2023-01-26T05:08:18;100202.72;;;2.25;92.48
33845;BME280;20145;43.118;25.694;2023-01-26T05:10:45;100200.38;;;2.31;92.00
33845;BME280;20145;43.118;25.694;2023-01-26T05:13:11;100201.25;;;2.31;91.73
33845;BME280;20145;43.118;25.694;2023-01-26T05:15:37;100189.06;;;2.22;91.56
33845;BME280;20145;43.118;25.694;2023-01-26T05:18:03;100184.13;;;2.27;91.70
33845;BME280;20145;43.118;25.694;2023-01-26T05:20:30;100189.22;;;2.27;91.57
33845;BME280;20145;43.118;25.694;2023-01-26T05:22:55;100191.66;;;2.24;91.88
33845;BME280;20145;43.118;25.694;2023-01-26T05:25:21;100182.56;;;2.31;92.10
33845;BME280;20145;43.118;25.694;2023-01-26T05:27:47;100180.88;;;2.31;91.79
33845;BME280;20145;43.118;25.694;2023-01-26T05:30:13;100175.78;;;2.31;91.62
33845;BME280;20145;43.118;25.694;2023-01-26T05:32:38;100166.44;;;2.30;92.05
33845;BME280;20145;43.118;25.694;2023-01-26T05:35:05;100185.25;;;2.35;91.51
33845;BME280;20145;43.118;25.694;2023-01-26T05:37:31;100169.66;;;2.26;91.34
33845;BME280;20145;43.118;25.694;2023-01-26T05:39:57;100180.28;;;2.38;91.09
33845;BME280;20145;43.118;25.694;2023-01-26T05:42:23;100179.19;;;2.32;90.42
33845;BME280;20145;43.118;25.694;2023-01-26T05:44:49;100167.13;;;2.26;91.03
33845;BME280;20145;43.118;25.694;2023-01-26T05:47:14;100174.75;;;2.26;90.96
33845;BME280;20145;43.118;25.694;2023-01-26T05:49:40;100174.06;;;2.30;91.58
33845;BME280;20145;43.118;25.694;2023-01-26T05:52:11;100160.50;;;2.31;91.73
33845;BME280;20145;43.118;25.694;2023-01-26T05:54:37;100158.00;;;2.33;91.35
33845;BME280;20145;43.118;25.694;2023-01-26T05:57:02;100147.78;;;2.31;90.58
33845;BME280;20145;43.118;25.694;2023-01-26T05:59:28;100161.28;;;2.29;90.84
33845;BME280;20145;43.118;25.694;2023-01-26T06:01:55;100159.59;;;2.29;91.32
33845;BME280;20145;43.118;25.694;2023-01-26T06:04:21;100152.88;;;2.31;91.70
33845;BME280;20145;43.118;25.694;2023-01-26T06:06:46;100151.94;;;2.29;91.58
33845;BME280;20145;43.118;25.694;2023-01-26T06:09:12;100142.50;;;2.25;91.36
33845;BME280;20145;43.118;25.694;2023-01-26T06:11:37;100146.00;;;2.29;90.87
33845;BME280;20145;43.118;25.694;2023-01-26T06:14:03;100141.66;;;2.26;91.12
33845;BME280;20145;43.118;25.694;2023-01-26T06:16:29;100137.50;;;2.28;91.46
33845;BME280;20145;43.118;25.694;2023-01-26T06:18:54;100135.06;;;2.31;90.92
33845;BME280;20145;43.118;25.694;2023-01-26T06:21:20;100134.44;;;2.38;91.00
33845;BME280;20145;43.118;25.694;2023-01-26T06:23:45;100121.50;;;2.32;91.41
33845;BME280;20145;43.118;25.694;2023-01-26T06:26:11;100128.47;;;2.38;90.60
33845;BME280;20145;43.118;25.694;2023-01-26T06:28:37;100118.28;;;2.38;90.40
33845;BME280;20145;43.118;25.694;2023-01-26T06:31:04;100106.22;;;2.32;89.67
33845;BME280;20145;43.118;25.694;2023-01-26T06:33:31;100101.88;;;2.30;89.56
33845;BME280;20145;43.118;25.694;2023-01-26T06:36:05;100106.28;;;2.34;90.24
33845;BME280;20145;43.118;25.694;2023-01-26T06:38:31;100105.72;;;2.42;90.12
33845;BME280;20145;43.118;25.694;2023-01-26T06:41:01;100107.41;;;2.42;90.31
33845;BME280;20145;43.118;25.694;2023-01-26T06:43:30;100105.31;;;2.30;89.75
33845;BME280;20145;43.118;25.694;2023-01-26T06:45:57;100102.06;;;2.34;90.28
33845;BME280;20145;43.118;25.694;2023-01-26T06:48:28;100087.69;;;2.36;89.66
33845;BME280;20145;43.118;25.694;2023-01-26T06:51:03;100092.72;;;2.35;90.63
33845;BME280;20145;43.118;25.694;2023-01-26T06:53:38;100078.44;;;2.38;90.65
33845;BME280;20145;43.118;25.694;2023-01-26T06:56:06;100076.06;;;2.44;90.56
33845;BME280;20145;43.118;25.694;2023-01-26T06:58:32;100058.19;;;2.43;90.71
33845;BME280;20145;43.118;25.694;2023-01-26T07:00:59;100076.41;;;2.55;90.20
33845;BME280;20145;43.118;25.694;2023-01-26T07:03:24;100075.16;;;2.71;90.59
33845;BME280;20145;43.118;25.694;2023-01-26T07:05:50;100078.09;;;2.83;89.35
33845;BME280;20145;43.118;25.694;2023-01-26T07:08:16;100073.34;;;2.94;88.84
33845;BME280;20145;43.118;25.694;2023-01-26T07:10:41;100074.19;;;2.95;88.49
33845;BME280;20145;43.118;25.694;2023-01-26T07:13:07;100066.53;;;2.95;88.82
33845;BME280;20145;43.118;25.694;2023-01-26T07:15:33;100080.28;;;3.00;87.70
33845;BME280;20145;43.118;25.694;2023-01-26T07:17:59;100080.06;;;2.92;88.80
33845;BME280;20145;43.118;25.694;2023-01-26T07:20:24;100078.38;;;2.93;87.42
33845;BME280;20145;43.118;25.694;2023-01-26T07:22:50;100071.06;;;2.75;88.24
33845;BME280;20145;43.118;25.694;2023-01-26T07:25:17;100072.69;;;2.73;88.17
33845;BME280;20145;43.118;25.694;2023-01-26T07:27:42;100085.38;;;2.71;88.05
33845;BME280;20145;43.118;25.694;2023-01-26T07:30:09;100078.31;;;2.62;89.05
33845;BME280;20145;43.118;25.694;2023-01-26T07:32:35;100071.94;;;2.77;89.19
33845;BME280;20145;43.118;25.694;2023-01-26T07:35:00;100064.50;;;2.83;89.21
33845;BME280;20145;43.118;25.694;2023-01-26T07:37:27;100063.72;;;2.85;88.24
33845;BME280;20145;43.118;25.694;2023-01-26T07:39:53;100056.63;;;2.75;87.77
33845;BME280;20145;43.118;25.694;2023-01-26T07:42:19;100055.81;;;2.76;88.78
33845;BME280;20145;43.118;25.694;2023-01-26T07:44:44;100042.97;;;2.73;88.60
33845;BME280;20145;43.118;25.694;2023-01-26T07:47:10;100048.25;;;2.79;88.31
33845;BME280;20145;43.118;25.694;2023-01-26T07:49:35;100047.38;;;2.79;88.42
33845;BME280;20145;43.118;25.694;2023-01-26T07:52:01;100040.91;;;2.90;88.15
33845;BME280;20145;43.118;25.694;2023-01-26T07:54:26;100035.69;;;2.85;88.20
33845;BME280;20145;43.118;25.694;2023-01-26T07:56:52;100044.06;;;2.81;88.32
33845;BME280;20145;43.118;25.694;2023-01-26T07:59:19;100043.16;;;2.79;88.75
33845;BME280;20145;43.118;25.694;2023-01-26T08:01:47;100034.72;;;2.80;88.53
33845;BME280;20145;43.118;25.694;2023-01-26T08:04:13;100039.50;;;3.00;88.80
33845;BME280;20145;43.118;25.694;2023-01-26T08:06:39;100033.06;;;3.12;88.86
33845;BME280;20145;43.118;25.694;2023-01-26T08:09:04;100031.34;;;3.11;87.32
33845;BME280;20145;43.118;25.694;2023-01-26T08:11:30;100000.19;;;2.92;87.85
33845;BME280;20145;43.118;25.694;2023-01-26T08:13:55;100020.84;;;3.01;87.88
33845;BME280;20145;43.118;25.694;2023-01-26T08:16:21;100025.47;;;3.14;87.99
33845;BME280;20145;43.118;25.694;2023-01-26T08:18:47;100021.75;;;3.34;88.02
33845;BME280;20145;43.118;25.694;2023-01-26T08:21:14;100022.59;;;3.33;86.84
33845;BME280;20145;43.118;25.694;2023-01-26T08:23:40;100007.94;;;3.26;86.34
33845;BME280;20145;43.118;25.694;2023-01-26T08:26:11;100018.44;;;3.37;86.71
33845;BME280;20145;43.118;25.694;2023-01-26T08:28:37;100019.25;;;3.36;85.83
33845;BME280;20145;43.118;25.694;2023-01-26T08:31:11;100022.59;;;3.33;85.64
33845;BME280;20145;43.118;25.694;2023-01-26T08:33:38;100020.75;;;3.28;86.17
33845;BME280;20145;43.118;25.694;2023-01-26T08:36:06;100013.19;;;3.31;87.19
33845;BME280;20145;43.118;25.694;2023-01-26T08:38:33;100016.72;;;3.36;87.25
33845;BME280;20145;43.118;25.694;2023-01-26T08:41:00;100015.75;;;3.64;86.11
33845;BME280;20145;43.118;25.694;2023-01-26T08:43:26;100019.44;;;3.75;85.79
33845;BME280;20145;43.118;25.694;2023-01-26T08:45:52;100009.63;;;3.92;85.20
33845;BME280;20145;43.118;25.694;2023-01-26T08:48:17;99997.47;;;4.17;84.58
33845;BME280;20145;43.118;25.694;2023-01-26T08:50:43;99993.91;;;4.10;82.71
33845;BME280;20145;43.118;25.694;2023-01-26T08:53:09;99993.25;;;4.19;83.27
33845;BME280;20145;43.118;25.694;2023-01-26T08:55:35;99977.63;;;4.07;83.61
33845;BME280;20145;43.118;25.694;2023-01-26T08:58:01;99981.16;;;4.12;84.17
33845;BME280;20145;43.118;25.694;2023-01-26T09:00:27;99977.59;;;4.41;83.24
33845;BME280;20145;43.118;25.694;2023-01-26T09:03:00;99970.88;;;4.46;82.38
33845;BME280;20145;43.118;25.694;2023-01-26T09:05:30;99973.50;;;4.50;81.85
33845;BME280;20145;43.118;25.694;2023-01-26T09:07:55;99968.41;;;4.51;81.84
33845;BME280;20145;43.118;25.694;2023-01-26T09:10:21;99973.22;;;4.37;82.03
33845;BME280;20145;43.118;25.694;2023-01-26T09:12:47;99962.09;;;4.34;81.12
33845;BME280;20145;43.118;25.694;2023-01-26T09:15:12;99968.63;;;4.60;81.57
33845;BME280;20145;43.118;25.694;2023-01-26T09:17:38;99968.97;;;4.79;81.09
33845;BME280;20145;43.118;25.694;2023-01-26T09:20:04;99963.66;;;4.68;80.18
33845;BME280;20145;43.118;25.694;2023-01-26T09:22:30;99962.50;;;4.95;80.01
33845;BME280;20145;43.118;25.694;2023-01-26T09:24:56;99965.78;;;4.89;80.14
33845;BME280;20145;43.118;25.694;2023-01-26T09:27:22;99960.25;;;4.67;80.21
33845;BME280;20145;43.118;25.694;2023-01-26T09:29:47;99964.44;;;4.65;81.20
33845;BME280;20145;43.118;25.694;2023-01-26T09:32:13;99965.28;;;4.63;80.95
33845;BME280;20145;43.118;25.694;2023-01-26T09:34:39;99957.16;;;4.43;80.50
33845;BME280;20145;43.118;25.694;2023-01-26T09:37:07;99960.88;;;4.18;81.37
33845;BME280;20145;43.118;25.694;2023-01-26T09:39:33;99959.09;;;4.15;83.21
33845;BME280;20145;43.118;25.694;2023-01-26T09:42:36;99964.59;;;4.32;82.56
33845;BME280;20145;43.118;25.694;2023-01-26T09:50:30;99913.38;;;4.26;83.45
33845;BME280;20145;43.118;25.694;2023-01-26T09:53:09;99919.94;;;4.54;83.03
33845;BME280;20145;43.118;25.694;2023-01-26T09:55:39;99920.25;;;4.69;82.83
33845;BME280;20145;43.118;25.694;2023-01-26T09:58:20;99927.38;;;4.86;81.95
33845;BME280;20145;43.118;25.694;2023-01-26T10:00:52;99920.78;;;4.97;82.10
33845;BME280;20145;43.118;25.694;2023-01-26T10:03:43;99917.97;;;4.83;81.44
33845;BME280;20145;43.118;25.694;2023-01-26T10:08:46;99895.16;;;4.96;81.25
33845;BME280;20145;43.118;25.694;2023-01-26T10:11:24;99893.19;;;4.81;81.46
33845;BME280;20145;43.118;25.694;2023-01-26T10:13:56;99881.97;;;4.73;81.24
33845;BME280;20145;43.118;25.694;2023-01-26T10:16:23;99873.47;;;4.74;81.86
33845;BME280;20145;43.118;25.694;2023-01-26T10:18:57;99864.88;;;4.70;81.82
33845;BME280;20145;43.118;25.694;2023-01-26T10:21:30;99863.13;;;4.67;81.60
33845;BME280;20145;43.118;25.694;2023-01-26T10:23:59;99857.22;;;4.68;82.81
33845;BME280;20145;43.118;25.694;2023-01-26T10:26:29;99842.78;;;4.72;82.31
33845;BME280;20145;43.118;25.694;2023-01-26T10:28:55;99856.06;;;5.01;82.27
33845;BME280;20145;43.118;25.694;2023-01-26T10:31:27;99856.41;;;5.20;81.44
33845;BME280;20145;43.118;25.694;2023-01-26T10:33:58;99842.13;;;5.34;80.57
33845;BME280;20145;43.118;25.694;2023-01-26T10:36:29;99837.91;;;5.37;80.71
33845;BME280;20145;43.118;25.694;2023-01-26T10:39:05;99843.16;;;5.45;80.08
33845;BME280;20145;43.118;25.694;2023-01-26T10:41:31;99820.94;;;5.43;79.36
33845;BME280;20145;43.118;25.694;2023-01-26T10:46:40;99825.50;;;5.61;79.39
33845;BME280;20145;43.118;25.694;2023-01-26T10:51:46;99809.59;;;5.83;77.79
33845;BME280;20145;43.118;25.694;2023-01-26T10:54:29;99805.97;;;5.69;78.76
33845;BME280;20145;43.118;25.694;2023-01-26T10:57:01;99807.00;;;5.80;78.56
33845;BME280;20145;43.118;25.694;2023-01-26T10:59:34;99799.47;;;5.91;78.69
33845;BME280;20145;43.118;25.694;2023-01-26T11:04:37;99787.91;;;5.59;78.61
33845;BME280;20145;43.118;25.694;2023-01-26T11:07:25;99771.97;;;5.79;78.06
33845;BME280;20145;43.118;25.694;2023-01-26T11:09:52;99754.09;;;5.80;78.56
33845;BME280;20145;43.118;25.694;2023-01-26T11:12:19;99760.34;;;6.01;77.25
33845;BME280;20145;43.118;25.694;2023-01-26T11:15:10;99752.03;;;6.19;77.96
33845;BME280;20145;43.118;25.694;2023-01-26T11:17:49;99752.91;;;6.22;76.86
33845;BME280;20145;43.118;25.694;2023-01-26T11:26:04;99736.06;;;5.73;79.45
33845;BME280;20145;43.118;25.694;2023-01-26T11:32:02;99710.34;;;5.65;79.00
33845;BME280;20145;43.118;25.694;2023-01-26T11:34:55;99725.72;;;5.65;80.02
33845;BME280;20145;43.118;25.694;2023-01-26T11:40:42;99708.47;;;5.50;79.85
33845;BME280;20145;43.118;25.694;2023-01-26T11:49:24;99702.75;;;5.68;79.46
33845;BME280;20145;43.118;25.694;2023-01-26T11:52:06;99692.53;;;5.71;79.55
33845;BME280;20145;43.118;25.694;2023-01-26T12:00:13;99655.00;;;5.73;79.15
33845;BME280;20145;43.118;25.694;2023-01-26T12:02:42;99676.50;;;5.86;79.28
33845;BME280;20145;43.118;25.694;2023-01-26T12:05:16;99665.34;;;5.79;79.10
33845;BME280;20145;43.118;25.694;2023-01-26T12:07:55;99654.97;;;5.70;80.24
33845;BME280;20145;43.118;25.694;2023-01-26T12:10:30;99628.38;;;5.59;80.53
33845;BME280;20145;43.118;25.694;2023-01-26T12:13:36;99653.97;;;5.59;81.07
33845;BME280;20145;43.118;25.694;2023-01-26T12:16:12;99660.06;;;5.66;80.95
33845;BME280;20145;43.118;25.694;2023-01-26T12:18:47;99660.84;;;5.62;81.73
33845;BME280;20145;43.118;25.694;2023-01-26T12:21:17;99666.84;;;5.64;81.91
33845;BME280;20145;43.118;25.694;2023-01-26T12:23:59;99670.91;;;5.46;82.55
33845;BME280;20145;43.118;25.694;2023-01-26T12:26:29;99664.88;;;5.41;83.28
33845;BME280;20145;43.118;25.694;2023-01-26T12:29:08;99669.16;;;5.44;84.45
33845;BME280;20145;43.118;25.694;2023-01-26T12:31:47;99667.38;;;5.38;84.22
33845;BME280;20145;43.118;25.694;2023-01-26T12:34:14;99669.06;;;5.36;84.71
33845;BME280;20145;43.118;25.694;2023-01-26T12:39:33;99658.19;;;5.52;85.31
33845;BME280;20145;43.118;25.694;2023-01-26T12:42:21;99652.31;;;5.61;84.99
33845;BME280;20145;43.118;25.694;2023-01-26T12:44:58;99654.00;;;5.61;83.67
33845;BME280;20145;43.118;25.694;2023-01-26T12:47:42;99656.66;;;5.68;84.44
33845;BME280;20145;43.118;25.694;2023-01-26T12:55:39;99643.13;;;5.81;84.57
33845;BME280;20145;43.118;25.694;2023-01-26T12:58:13;99649.19;;;5.87;83.95
33845;BME280;20145;43.118;25.694;2023-01-26T13:00:59;99641.47;;;5.84;83.38
33845;BME280;20145;43.118;25.694;2023-01-26T13:03:32;99638.09;;;5.86;83.16
33845;BME280;20145;43.118;25.694;2023-01-26T13:06:02;99640.69;;;5.88;83.10
33845;BME280;20145;43.118;25.694;2023-01-26T13:08:49;99633.66;;;5.73;82.93
33845;BME280;20145;43.118;25.694;2023-01-26T13:11:53;99638.06;;;5.83;83.32
33845;BME280;20145;43.118;25.694;2023-01-26T13:14:35;99627.09;;;5.93;83.18
33845;BME280;20145;43.118;25.694;2023-01-26T13:22:37;99611.84;;;6.06;82.30
33845;BME280;20145;43.118;25.694;2023-01-26T13:25:17;99599.03;;;6.06;82.04
33845;BME280;20145;43.118;25.694;2023-01-26T13:27:55;99600.00;;;6.15;82.51
33845;BME280;20145;43.118;25.694;2023-01-26T13:35:21;99576.00;;;6.09;82.82
33845;BME280;20145;43.118;25.694;2023-01-26T13:40:45;99575.97;;;6.04;82.85
33845;BME280;20145;43.118;25.694;2023-01-26T13:43:31;99574.13;;;5.91;83.84
33845;BME280;20145;43.118;25.694;2023-01-26T13:48:53;99568.63;;;5.54;86.69
33845;BME280;20145;43.118;25.694;2023-01-26T13:51:23;99582.38;;;5.64;86.47
33845;BME280;20145;43.118;25.694;2023-01-26T13:56:32;99566.91;;;5.53;86.38
33845;BME280;20145;43.118;25.694;2023-01-26T13:59:24;99574.59;;;5.53;87.08
33845;BME280;20145;43.118;25.694;2023-01-26T14:01:53;99564.31;;;5.50;87.47
33845;BME280;20145;43.118;25.694;2023-01-26T14:04:27;99568.34;;;5.28;88.09
33845;BME280;20145;43.118;25.694;2023-01-26T14:07:05;99564.06;;;5.27;88.97
33845;BME280;20145;43.118;25.694;2023-01-26T14:09:34;99558.78;;;5.14;89.87
33845;BME280;20145;43.118;25.694;2023-01-26T14:12:05;99551.75;;;4.98;90.27
33845;BME280;20145;43.118;25.694;2023-01-26T14:14:34;99544.91;;;4.96;90.71
33845;BME280;20145;43.118;25.694;2023-01-26T14:19:49;99543.25;;;4.96;91.60
33845;BME280;20145;43.118;25.694;2023-01-26T14:22:15;99550.13;;;5.02;91.98